DLH573V HAAB-FMMI
Flight info
| Callsign | DLH573V |
|---|---|
| Flight time | N/A |
| Altitude | 37000 |
| Route | IMKIT3A IMKIT UT129 ALEMU/N0486F380 UN301 MOV UL431 EGPET/N0486F390 UT913 KINAN UA401 TN TN2B |
| Aircraft | A388/J-SADE2E3FGHIJ3J4J5M1RWXY/LB1D1 |
Departure
| Time | 2026-04-27 09:19 |
|---|---|
| Airport | Addis Ababa Bole International Airport (HAAB) |
Arrival
| Time | N/A |
|---|---|
| Airport | Ivato International Airport (FMMI) |
| Time | Latitude | Longitude | Altitude | Speed | Heading |
|---|---|---|---|---|---|
| 2026-04-27 08:56 | 8.98366 | 38.80102 | 7636 ft | 0 kts | 343° |
| 2026-04-27 09:08 | 8.98363 | 38.80102 | 7863 ft | 3 kts | 343° |
| 2026-04-27 09:08 | 8.98337 | 38.80110 | 7548 ft | 4 kts | 344° |
| 2026-04-27 09:09 | 8.98317 | 38.80117 | 7554 ft | 4 kts | 327° |
| 2026-04-27 09:09 | 8.98302 | 38.80134 | 7555 ft | 4 kts | 270° |
| 2026-04-27 09:09 | 8.98307 | 38.80159 | 7553 ft | 4 kts | 254° |
| 2026-04-27 09:09 | 8.98313 | 38.80179 | 7549 ft | 0 kts | 254° |
| 2026-04-27 09:12 | 8.98312 | 38.80176 | 7550 ft | 2 kts | 254° |
| 2026-04-27 09:13 | 8.98300 | 38.80136 | 7555 ft | 10 kts | 250° |
| 2026-04-27 09:13 | 8.98246 | 38.80102 | 7546 ft | 12 kts | 179° |
| 2026-04-27 09:13 | 8.98153 | 38.80128 | 7546 ft | 15 kts | 162° |
| 2026-04-27 09:13 | 8.98054 | 38.80158 | 7546 ft | 15 kts | 165° |
| 2026-04-27 09:14 | 8.97968 | 38.80146 | 7547 ft | 14 kts | 230° |
| 2026-04-27 09:14 | 8.97920 | 38.80031 | 7547 ft | 20 kts | 252° |
| 2026-04-27 09:14 | 8.97876 | 38.79879 | 7547 ft | 24 kts | 254° |
| 2026-04-27 09:14 | 8.97826 | 38.79702 | 7547 ft | 28 kts | 253° |
| 2026-04-27 09:15 | 8.97770 | 38.79519 | 7547 ft | 27 kts | 252° |
| 2026-04-27 09:15 | 8.97714 | 38.79344 | 7547 ft | 26 kts | 252° |
| 2026-04-27 09:15 | 8.97664 | 38.79170 | 7547 ft | 26 kts | 257° |
| 2026-04-27 09:15 | 8.97620 | 38.78998 | 7542 ft | 25 kts | 254° |
| 2026-04-27 09:16 | 8.97570 | 38.78832 | 7542 ft | 24 kts | 253° |
| 2026-04-27 09:16 | 8.97522 | 38.78668 | 7542 ft | 24 kts | 253° |
| 2026-04-27 09:16 | 8.97475 | 38.78505 | 7542 ft | 24 kts | 253° |
| 2026-04-27 09:16 | 8.97429 | 38.78343 | 7542 ft | 24 kts | 253° |
| 2026-04-27 09:17 | 8.97331 | 38.78300 | 7542 ft | 15 kts | 137° |
| 2026-04-27 09:17 | 8.97258 | 38.78372 | 7542 ft | 13 kts | 113° |
| 2026-04-27 09:17 | 8.97263 | 38.78457 | 7542 ft | 12 kts | 74° |
| 2026-04-27 09:17 | 8.97324 | 38.78663 | 7542 ft | 62 kts | 72° |
| 2026-04-27 09:18 | 8.97509 | 38.79301 | 7542 ft | 124 kts | 73° |
| 2026-04-27 09:18 | 8.97797 | 38.80292 | 7546 ft | 166 kts | 73° |
| 2026-04-27 09:18 | 8.98138 | 38.81505 | 7584 ft | 188 kts | 75° |
| 2026-04-27 09:18 | 8.98504 | 38.82728 | 8004 ft | 178 kts | 75° |
| 2026-04-27 09:19 | 8.98843 | 38.83941 | 8310 ft | 183 kts | 75° |
| 2026-04-27 09:19 | 8.99178 | 38.85193 | 8655 ft | 185 kts | 75° |
| 2026-04-27 09:19 | 8.99521 | 38.86465 | 8978 ft | 192 kts | 75° |
| 2026-04-27 09:19 | 8.99888 | 38.87815 | 9088 ft | 206 kts | 75° |
| 2026-04-27 09:20 | 9.00284 | 38.89251 | 9210 ft | 218 kts | 75° |
| 2026-04-27 09:20 | 9.00713 | 38.90784 | 9362 ft | 239 kts | 74° |
| 2026-04-27 09:20 | 9.01184 | 38.92459 | 9755 ft | 253 kts | 74° |
| 2026-04-27 09:20 | 9.01667 | 38.94162 | 10496 ft | 251 kts | 74° |
| 2026-04-27 09:21 | 9.02141 | 38.95860 | 11193 ft | 253 kts | 74° |
| 2026-04-27 09:21 | 9.02587 | 38.97591 | 11809 ft | 258 kts | 83° |
| 2026-04-27 09:21 | 9.02404 | 38.99389 | 12486 ft | 260 kts | 110° |
| 2026-04-27 09:21 | 9.01401 | 39.00920 | 13105 ft | 267 kts | 137° |
| 2026-04-27 09:22 | 8.99771 | 39.01845 | 13738 ft | 274 kts | 164° |
| 2026-04-27 09:22 | 8.97863 | 39.01936 | 14326 ft | 280 kts | 191° |
| 2026-04-27 09:22 | 8.96078 | 39.01152 | 14943 ft | 282 kts | 218° |
| 2026-04-27 09:22 | 8.94787 | 38.99649 | 15479 ft | 289 kts | 243° |
| 2026-04-27 09:23 | 8.94199 | 38.97703 | 16024 ft | 293 kts | 261° |
| 2026-04-27 09:23 | 8.93896 | 38.95647 | 16538 ft | 298 kts | 259° |
| 2026-04-27 09:23 | 8.93456 | 38.93585 | 17064 ft | 301 kts | 253° |
| 2026-04-27 09:23 | 8.92828 | 38.91550 | 17571 ft | 306 kts | 249° |
| 2026-04-27 09:24 | 8.92069 | 38.89523 | 18066 ft | 310 kts | 246° |
| 2026-04-27 09:24 | 8.91247 | 38.87506 | 18610 ft | 310 kts | 246° |
| 2026-04-27 09:24 | 8.90333 | 38.85525 | 18985 ft | 313 kts | 233° |
| 2026-04-27 09:24 | 8.88808 | 38.83978 | 19387 ft | 312 kts | 209° |
| 2026-04-27 09:25 | 8.86846 | 38.83135 | 19752 ft | 313 kts | 196° |
| 2026-04-27 09:25 | 8.84720 | 38.82450 | 19864 ft | 328 kts | 195° |
| 2026-04-27 09:25 | 8.82502 | 38.81737 | 19964 ft | 341 kts | 196° |
| 2026-04-27 09:25 | 8.80198 | 38.80981 | 20083 ft | 355 kts | 196° |
| 2026-04-27 09:26 | 8.77806 | 38.80182 | 20196 ft | 368 kts | 196° |
| 2026-04-27 09:26 | 8.75334 | 38.79349 | 20299 ft | 381 kts | 197° |
| 2026-04-27 09:26 | 8.72786 | 38.78485 | 20415 ft | 392 kts | 197° |
| 2026-04-27 09:26 | 8.70158 | 38.77595 | 20534 ft | 403 kts | 197° |
| 2026-04-27 09:27 | 8.67480 | 38.76698 | 20859 ft | 407 kts | 194° |
| 2026-04-27 09:27 | 8.64753 | 38.76086 | 21234 ft | 407 kts | 186° |
| 2026-04-27 09:27 | 8.61925 | 38.75875 | 21564 ft | 409 kts | 178° |
| 2026-04-27 09:27 | 8.59084 | 38.76038 | 21932 ft | 410 kts | 174° |
| 2026-04-27 09:28 | 8.56225 | 38.76253 | 22281 ft | 413 kts | 174° |
| 2026-04-27 09:28 | 8.53344 | 38.76451 | 22626 ft | 416 kts | 174° |
| 2026-04-27 09:28 | 8.50448 | 38.76646 | 22972 ft | 419 kts | 174° |
| 2026-04-27 09:28 | 8.47531 | 38.76842 | 23313 ft | 421 kts | 174° |
| 2026-04-27 09:29 | 8.44598 | 38.77041 | 23640 ft | 424 kts | 174° |
| 2026-04-27 09:29 | 8.41641 | 38.77242 | 23931 ft | 426 kts | 174° |
| 2026-04-27 09:29 | 8.38673 | 38.77445 | 24230 ft | 428 kts | 174° |
| 2026-04-27 09:29 | 8.35695 | 38.77649 | 24526 ft | 430 kts | 174° |
| 2026-04-27 09:30 | 8.32704 | 38.77855 | 24806 ft | 432 kts | 174° |
| 2026-04-27 09:30 | 8.29696 | 38.78061 | 25104 ft | 434 kts | 174° |
| 2026-04-27 09:30 | 8.26677 | 38.78268 | 25388 ft | 436 kts | 174° |
| 2026-04-27 09:30 | 8.23644 | 38.78476 | 25663 ft | 438 kts | 174° |
| 2026-04-27 09:31 | 8.20595 | 38.78686 | 25963 ft | 440 kts | 174° |
| 2026-04-27 09:31 | 8.17533 | 38.78895 | 26262 ft | 442 kts | 174° |
| 2026-04-27 09:31 | 8.14497 | 38.79104 | 26553 ft | 444 kts | 174° |
| 2026-04-27 09:31 | 8.11408 | 38.79315 | 26856 ft | 446 kts | 174° |
| 2026-04-27 09:32 | 8.08298 | 38.79528 | 27175 ft | 448 kts | 174° |
| 2026-04-27 09:32 | 8.05174 | 38.79742 | 27482 ft | 451 kts | 174° |
| 2026-04-27 09:32 | 8.02041 | 38.79957 | 27811 ft | 453 kts | 174° |
| 2026-04-27 09:32 | 7.98889 | 38.80173 | 28137 ft | 455 kts | 174° |
| 2026-04-27 09:33 | 7.95722 | 38.80390 | 28547 ft | 456 kts | 174° |
| 2026-04-27 09:33 | 7.92544 | 38.80607 | 28885 ft | 459 kts | 174° |
| 2026-04-27 09:33 | 7.90432 | 38.80752 | 29123 ft | 461 kts | 174° |
| 2026-04-27 09:33 | 7.87225 | 38.80971 | 29485 ft | 463 kts | 174° |
| 2026-04-27 09:34 | 7.83998 | 38.81192 | 29858 ft | 466 kts | 174° |
| 2026-04-27 09:34 | 7.80747 | 38.81414 | 30211 ft | 469 kts | 174° |
| 2026-04-27 09:34 | 7.77480 | 38.81638 | 30538 ft | 472 kts | 174° |
| 2026-04-27 09:34 | 7.74194 | 38.81862 | 30879 ft | 475 kts | 174° |
| 2026-04-27 09:35 | 7.70885 | 38.82089 | 31219 ft | 477 kts | 174° |
| 2026-04-27 09:35 | 7.67563 | 38.82316 | 31569 ft | 480 kts | 174° |
| 2026-04-27 09:35 | 7.64219 | 38.82545 | 31888 ft | 483 kts | 174° |
| 2026-04-27 09:35 | 7.60856 | 38.82775 | 32212 ft | 486 kts | 174° |
| 2026-04-27 09:36 | 7.57475 | 38.83006 | 32538 ft | 488 kts | 174° |
| 2026-04-27 09:36 | 7.54117 | 38.83235 | 32866 ft | 491 kts | 174° |
| 2026-04-27 09:36 | 7.50688 | 38.83469 | 33190 ft | 494 kts | 174° |
| 2026-04-27 09:36 | 7.47251 | 38.83704 | 33511 ft | 497 kts | 175° |
| 2026-04-27 09:37 | 7.43810 | 38.84079 | 33826 ft | 499 kts | 169° |
| 2026-04-27 09:37 | 7.40416 | 38.84832 | 34146 ft | 500 kts | 162° |
| 2026-04-27 09:37 | 7.37096 | 38.85869 | 34457 ft | 501 kts | 161° |
| 2026-04-27 09:37 | 7.33753 | 38.86913 | 34805 ft | 502 kts | 161° |
| 2026-04-27 09:38 | 7.30419 | 38.87942 | 35236 ft | 501 kts | 161° |
| 2026-04-27 09:38 | 7.27084 | 38.88968 | 35679 ft | 500 kts | 161° |
| 2026-04-27 09:38 | 7.23768 | 38.89989 | 36093 ft | 499 kts | 161° |
| 2026-04-27 09:38 | 7.20446 | 38.91012 | 36545 ft | 497 kts | 161° |
| 2026-04-27 09:39 | 7.17143 | 38.92031 | 36968 ft | 496 kts | 161° |
| 2026-04-27 09:39 | 7.10519 | 38.94075 | 37054 ft | 497 kts | 161° |
| 2026-04-27 09:40 | 7.03885 | 38.96122 | 37053 ft | 499 kts | 161° |
| 2026-04-27 09:40 | 6.97238 | 38.98173 | 37055 ft | 499 kts | 161° |
| 2026-04-27 09:41 | 6.90528 | 39.00245 | 37056 ft | 516 kts | 161° |
| 2026-04-27 09:41 | 6.83636 | 39.02371 | 37056 ft | 516 kts | 161° |
| 2026-04-27 09:42 | 6.76761 | 39.04489 | 37056 ft | 517 kts | 161° |
| 2026-04-27 09:42 | 6.69887 | 39.06608 | 37056 ft | 517 kts | 161° |
| 2026-04-27 09:43 | 6.63003 | 39.08728 | 37052 ft | 517 kts | 161° |
| 2026-04-27 09:43 | 6.56121 | 39.10848 | 37048 ft | 517 kts | 161° |
| 2026-04-27 09:44 | 6.49244 | 39.12965 | 37053 ft | 517 kts | 162° |
| 2026-04-27 09:44 | 6.42366 | 39.15082 | 37039 ft | 517 kts | 161° |
| 2026-04-27 09:45 | 6.35486 | 39.17199 | 37029 ft | 517 kts | 161° |
| 2026-04-27 09:45 | 6.28653 | 39.19301 | 37029 ft | 517 kts | 161° |
| 2026-04-27 09:46 | 6.21772 | 39.21417 | 37022 ft | 517 kts | 161° |
| 2026-04-27 09:46 | 6.14891 | 39.23531 | 37024 ft | 517 kts | 161° |
| 2026-04-27 09:47 | 6.08000 | 39.25651 | 37011 ft | 517 kts | 161° |
| 2026-04-27 09:47 | 6.01122 | 39.27765 | 37013 ft | 517 kts | 161° |
| 2026-04-27 09:48 | 5.94240 | 39.29879 | 37012 ft | 517 kts | 161° |
| 2026-04-27 09:48 | 5.87362 | 39.31991 | 37011 ft | 518 kts | 161° |